Terminal Aerodrome Forecast
Issued by NWS

Home | Current Version | Previous Version | Text Only | Print | Product List | Glossary On
Versions: 1 2 3 4 5 6 7 8 9 10 11 12 13 14 15 16
000
FTUS46 KLOX 270500
TAFBUR
TAF
KBUR 270520Z 2706/2806 11005KT 6SM -RA BR BKN040 OVC080
     FM270800 11005KT P6SM VCSH SCT040 BKN080
     FM271000 VRB03KT P6SM VCSH BKN080 BKN120
     FM271200 VRB03KT P6SM SCT080
     FM272000 20008KT P6SM SCT200
     FM280200 VRB03KT P6SM SKC=

USA.gov is the U.S. government's official web portal to all federal, state and local government web resources and services.